WZZ227 EPWA-LKPR
Flight info
| Callsign | WZZ227 |
|---|---|
| Flight time | 1h 5m |
| Altitude | 32000 |
| Route | SOXER N869 TOMTI DCT ASTEL DCT GOLOP |
| Aircraft | A320/M-SDE3FGHIRWY/LB1 |
Departure
| Time | 2026-05-05 18:53 |
|---|---|
| Airport | Warsaw Chopin Airport (EPWA) |
Arrival
| Time | 2026-05-05 19:58 |
|---|---|
| Airport | Václav Havel Airport Prague (LKPR) |
| Time | Latitude | Longitude | Altitude | Speed | Heading |
|---|---|---|---|---|---|
| 2026-05-05 18:15 | 52.17410 | 20.97021 | 335 ft | 0 kts | 242° |
| 2026-05-05 18:38 | 52.17415 | 20.97037 | 334 ft | 4 kts | 242° |
| 2026-05-05 18:38 | 52.17427 | 20.97075 | 337 ft | 4 kts | 259° |
| 2026-05-05 18:39 | 52.17424 | 20.97114 | 338 ft | 4 kts | 310° |
| 2026-05-05 18:39 | 52.17412 | 20.97131 | 334 ft | 1 kts | 332° |
| 2026-05-05 18:39 | 52.17410 | 20.97132 | 334 ft | 0 kts | 332° |
| 2026-05-05 18:44 | 52.17435 | 20.97111 | 338 ft | 8 kts | 332° |
| 2026-05-05 18:44 | 52.17499 | 20.97055 | 335 ft | 12 kts | 332° |
| 2026-05-05 18:45 | 52.17576 | 20.96988 | 338 ft | 13 kts | 332° |
| 2026-05-05 18:45 | 52.17620 | 20.96881 | 338 ft | 13 kts | 256° |
| 2026-05-05 18:45 | 52.17571 | 20.96744 | 336 ft | 13 kts | 238° |
| 2026-05-05 18:45 | 52.17528 | 20.96627 | 337 ft | 13 kts | 239° |
| 2026-05-05 18:46 | 52.17470 | 20.96509 | 336 ft | 14 kts | 239° |
| 2026-05-05 18:46 | 52.17451 | 20.96451 | 336 ft | 1 kts | 242° |
| 2026-05-05 18:46 | 52.17441 | 20.96421 | 333 ft | 6 kts | 241° |
| 2026-05-05 18:46 | 52.17398 | 20.96397 | 336 ft | 9 kts | 173° |
| 2026-05-05 18:47 | 52.17335 | 20.96445 | 337 ft | 11 kts | 152° |
| 2026-05-05 18:47 | 52.17261 | 20.96510 | 336 ft | 13 kts | 152° |
| 2026-05-05 18:47 | 52.17173 | 20.96586 | 333 ft | 15 kts | 152° |
| 2026-05-05 18:47 | 52.17075 | 20.96672 | 337 ft | 15 kts | 151° |
| 2026-05-05 18:48 | 52.16985 | 20.96751 | 336 ft | 14 kts | 152° |
| 2026-05-05 18:48 | 52.16895 | 20.96829 | 339 ft | 16 kts | 152° |
| 2026-05-05 18:48 | 52.16795 | 20.96916 | 336 ft | 17 kts | 151° |
| 2026-05-05 18:48 | 52.16694 | 20.97005 | 336 ft | 13 kts | 152° |
| 2026-05-05 18:49 | 52.16649 | 20.97106 | 337 ft | 12 kts | 115° |
| 2026-05-05 18:49 | 52.16611 | 20.97241 | 337 ft | 10 kts | 115° |
| 2026-05-05 18:49 | 52.16579 | 20.97354 | 336 ft | 12 kts | 115° |
| 2026-05-05 18:49 | 52.16541 | 20.97489 | 338 ft | 14 kts | 114° |
| 2026-05-05 18:50 | 52.16497 | 20.97645 | 336 ft | 16 kts | 115° |
| 2026-05-05 18:50 | 52.16485 | 20.97685 | 336 ft | 0 kts | 115° |
| 2026-05-05 18:50 | 52.16476 | 20.97718 | 335 ft | 5 kts | 115° |
| 2026-05-05 18:51 | 52.16454 | 20.97780 | 334 ft | 7 kts | 136° |
| 2026-05-05 18:51 | 52.16401 | 20.97789 | 339 ft | 9 kts | 200° |
| 2026-05-05 18:51 | 52.16338 | 20.97747 | 334 ft | 11 kts | 205° |
| 2026-05-05 18:51 | 52.16311 | 20.97656 | 335 ft | 11 kts | 288° |
| 2026-05-05 18:52 | 52.16320 | 20.97622 | 337 ft | 0 kts | 293° |
| 2026-05-05 18:52 | 52.16383 | 20.97394 | 337 ft | 63 kts | 294° |
| 2026-05-05 18:52 | 52.16683 | 20.96325 | 346 ft | 140 kts | 294° |
| 2026-05-05 18:52 | 52.17151 | 20.94625 | 568 ft | 178 kts | 293° |
| 2026-05-05 18:53 | 52.17638 | 20.92749 | 1263 ft | 178 kts | 289° |
| 2026-05-05 18:53 | 52.18093 | 20.90892 | 1945 ft | 175 kts | 287° |
| 2026-05-05 18:53 | 52.18517 | 20.89057 | 2556 ft | 172 kts | 285° |
| 2026-05-05 18:53 | 52.18914 | 20.87226 | 3157 ft | 170 kts | 284° |
| 2026-05-05 18:54 | 52.19260 | 20.85385 | 3700 ft | 171 kts | 274° |
| 2026-05-05 18:54 | 52.19101 | 20.83402 | 3929 ft | 189 kts | 248° |
| 2026-05-05 18:54 | 52.18641 | 20.81250 | 4216 ft | 214 kts | 253° |
| 2026-05-05 18:54 | 52.18243 | 20.78775 | 4564 ft | 238 kts | 253° |
| 2026-05-05 18:55 | 52.17805 | 20.76059 | 5078 ft | 255 kts | 253° |
| 2026-05-05 18:55 | 52.17351 | 20.73231 | 5899 ft | 260 kts | 253° |
| 2026-05-05 18:55 | 52.16894 | 20.70372 | 6747 ft | 262 kts | 253° |
| 2026-05-05 18:55 | 52.16433 | 20.67484 | 7597 ft | 264 kts | 253° |
| 2026-05-05 18:56 | 52.15971 | 20.64580 | 8438 ft | 266 kts | 253° |
| 2026-05-05 18:56 | 52.15506 | 20.61657 | 9293 ft | 268 kts | 252° |
| 2026-05-05 18:56 | 52.15033 | 20.58707 | 10058 ft | 272 kts | 253° |
| 2026-05-05 18:56 | 52.14534 | 20.55610 | 10319 ft | 294 kts | 253° |
| 2026-05-05 18:57 | 52.13992 | 20.52258 | 10470 ft | 318 kts | 253° |
| 2026-05-05 18:57 | 52.13410 | 20.48655 | 10606 ft | 339 kts | 253° |
| 2026-05-05 18:57 | 52.12800 | 20.44881 | 11037 ft | 349 kts | 253° |
| 2026-05-05 18:57 | 52.12186 | 20.41086 | 11646 ft | 353 kts | 253° |
| 2026-05-05 18:58 | 52.11562 | 20.37214 | 12289 ft | 355 kts | 253° |
| 2026-05-05 18:58 | 52.10934 | 20.33319 | 12954 ft | 357 kts | 253° |
| 2026-05-05 18:58 | 52.10298 | 20.29396 | 13595 ft | 360 kts | 253° |
| 2026-05-05 18:58 | 52.09653 | 20.25446 | 14146 ft | 363 kts | 253° |
| 2026-05-05 18:59 | 52.08997 | 20.21457 | 14659 ft | 367 kts | 254° |
| 2026-05-05 18:59 | 52.08333 | 20.17431 | 15155 ft | 371 kts | 254° |
| 2026-05-05 18:59 | 52.07664 | 20.13358 | 15649 ft | 375 kts | 254° |
| 2026-05-05 18:59 | 52.06987 | 20.09241 | 16139 ft | 379 kts | 254° |
| 2026-05-05 19:00 | 52.06301 | 20.05080 | 16645 ft | 383 kts | 254° |
| 2026-05-05 19:00 | 52.05607 | 20.00881 | 17151 ft | 387 kts | 254° |
| 2026-05-05 19:00 | 52.04904 | 19.96640 | 17674 ft | 391 kts | 254° |
| 2026-05-05 19:00 | 52.04179 | 19.92367 | 18178 ft | 394 kts | 253° |
| 2026-05-05 19:01 | 52.03352 | 19.88106 | 18623 ft | 397 kts | 251° |
| 2026-05-05 19:01 | 52.02438 | 19.83849 | 19087 ft | 400 kts | 250° |
| 2026-05-05 19:01 | 52.01475 | 19.79585 | 19555 ft | 403 kts | 249° |
| 2026-05-05 19:01 | 52.00496 | 19.75297 | 20016 ft | 406 kts | 249° |
| 2026-05-05 19:02 | 51.99519 | 19.70978 | 20476 ft | 409 kts | 249° |
| 2026-05-05 19:02 | 51.98548 | 19.66629 | 20900 ft | 412 kts | 250° |
| 2026-05-05 19:02 | 51.97581 | 19.62245 | 21318 ft | 414 kts | 250° |
| 2026-05-05 19:02 | 51.96614 | 19.57825 | 21725 ft | 417 kts | 250° |
| 2026-05-05 19:03 | 51.95644 | 19.53374 | 22117 ft | 419 kts | 250° |
| 2026-05-05 19:03 | 51.94669 | 19.48907 | 22506 ft | 422 kts | 250° |
| 2026-05-05 19:03 | 51.93681 | 19.44410 | 22887 ft | 424 kts | 250° |
| 2026-05-05 19:03 | 51.92683 | 19.39897 | 23266 ft | 427 kts | 250° |
| 2026-05-05 19:04 | 51.91690 | 19.35414 | 23590 ft | 429 kts | 250° |
| 2026-05-05 19:04 | 51.90680 | 19.30852 | 23920 ft | 431 kts | 250° |
| 2026-05-05 19:04 | 51.89664 | 19.26279 | 24258 ft | 433 kts | 250° |
| 2026-05-05 19:04 | 51.88640 | 19.21685 | 24606 ft | 434 kts | 250° |
| 2026-05-05 19:05 | 51.87610 | 19.17081 | 24935 ft | 436 kts | 250° |
| 2026-05-05 19:05 | 51.86576 | 19.12459 | 25266 ft | 438 kts | 250° |
| 2026-05-05 19:05 | 51.85544 | 19.07814 | 25622 ft | 439 kts | 250° |
| 2026-05-05 19:05 | 51.84526 | 19.03173 | 26103 ft | 437 kts | 250° |
| 2026-05-05 19:06 | 51.83521 | 18.98561 | 26600 ft | 435 kts | 250° |
| 2026-05-05 19:06 | 51.82518 | 18.93951 | 27096 ft | 433 kts | 250° |
| 2026-05-05 19:06 | 51.81519 | 18.89370 | 27587 ft | 431 kts | 250° |
| 2026-05-05 19:06 | 51.80518 | 18.84814 | 28092 ft | 430 kts | 250° |
| 2026-05-05 19:07 | 51.79518 | 18.80282 | 28591 ft | 428 kts | 250° |
| 2026-05-05 19:07 | 51.78855 | 18.77286 | 28918 ft | 427 kts | 250° |
| 2026-05-05 19:07 | 51.77520 | 18.71270 | 29682 ft | 423 kts | 250° |
| 2026-05-05 19:07 | 51.76530 | 18.66814 | 30171 ft | 421 kts | 250° |
| 2026-05-05 19:08 | 51.75544 | 18.62375 | 30585 ft | 420 kts | 250° |
| 2026-05-05 19:08 | 51.74559 | 18.57935 | 30980 ft | 419 kts | 250° |
| 2026-05-05 19:08 | 51.73572 | 18.53518 | 31380 ft | 419 kts | 250° |
| 2026-05-05 19:08 | 51.72581 | 18.49104 | 31719 ft | 419 kts | 250° |
| 2026-05-05 19:09 | 51.70598 | 18.40297 | 31803 ft | 417 kts | 250° |
| 2026-05-05 19:09 | 51.68614 | 18.31516 | 31799 ft | 417 kts | 250° |
| 2026-05-05 19:10 | 51.66629 | 18.22741 | 31802 ft | 417 kts | 250° |
| 2026-05-05 19:10 | 51.64638 | 18.13984 | 31807 ft | 416 kts | 250° |
| 2026-05-05 19:11 | 51.62977 | 18.06746 | 31797 ft | 414 kts | 250° |
| 2026-05-05 19:11 | 51.60983 | 17.98055 | 31795 ft | 415 kts | 250° |
| 2026-05-05 19:12 | 51.58974 | 17.89337 | 31802 ft | 416 kts | 250° |
| 2026-05-05 19:12 | 51.56960 | 17.80595 | 31802 ft | 417 kts | 250° |
| 2026-05-05 19:13 | 51.54941 | 17.71866 | 31800 ft | 417 kts | 250° |
| 2026-05-05 19:13 | 51.52917 | 17.63148 | 31799 ft | 417 kts | 250° |
| 2026-05-05 19:14 | 51.50881 | 17.54440 | 31809 ft | 416 kts | 249° |
| 2026-05-05 19:14 | 51.48842 | 17.45762 | 31802 ft | 416 kts | 249° |
| 2026-05-05 19:15 | 51.46793 | 17.37087 | 31781 ft | 416 kts | 249° |
| 2026-05-05 19:15 | 51.44745 | 17.28437 | 31797 ft | 419 kts | 249° |
| 2026-05-05 19:16 | 51.42670 | 17.19714 | 31799 ft | 419 kts | 249° |
| 2026-05-05 19:16 | 51.40586 | 17.10999 | 31797 ft | 419 kts | 249° |
| 2026-05-05 19:17 | 51.38493 | 17.02280 | 31799 ft | 419 kts | 249° |
| 2026-05-05 19:17 | 51.36400 | 16.93577 | 31799 ft | 418 kts | 249° |
| 2026-05-05 19:18 | 51.34293 | 16.84821 | 31637 ft | 429 kts | 249° |
| 2026-05-05 19:18 | 51.33214 | 16.80344 | 31457 ft | 433 kts | 249° |
| 2026-05-05 19:18 | 51.32127 | 16.75849 | 31285 ft | 434 kts | 249° |
| 2026-05-05 19:19 | 51.31032 | 16.71345 | 31089 ft | 436 kts | 248° |
| 2026-05-05 19:19 | 51.29926 | 16.66819 | 30922 ft | 437 kts | 248° |
| 2026-05-05 19:19 | 51.28831 | 16.62346 | 30748 ft | 438 kts | 248° |
| 2026-05-05 19:19 | 51.27717 | 16.57815 | 30577 ft | 438 kts | 248° |
| 2026-05-05 19:20 | 51.26603 | 16.53278 | 30403 ft | 439 kts | 248° |
| 2026-05-05 19:20 | 51.25490 | 16.48742 | 30234 ft | 439 kts | 248° |
| 2026-05-05 19:20 | 51.24374 | 16.44200 | 30061 ft | 440 kts | 248° |
| 2026-05-05 19:20 | 51.23255 | 16.39654 | 29894 ft | 440 kts | 248° |
| 2026-05-05 19:21 | 51.22134 | 16.35114 | 29716 ft | 441 kts | 248° |
| 2026-05-05 19:21 | 51.21006 | 16.30556 | 29519 ft | 442 kts | 248° |
| 2026-05-05 19:21 | 51.19875 | 16.25999 | 29319 ft | 442 kts | 248° |
| 2026-05-05 19:21 | 51.18745 | 16.21450 | 29124 ft | 442 kts | 248° |
| 2026-05-05 19:22 | 51.17605 | 16.16888 | 28927 ft | 443 kts | 248° |
| 2026-05-05 19:22 | 51.16462 | 16.12327 | 28737 ft | 443 kts | 248° |
| 2026-05-05 19:22 | 51.15316 | 16.07760 | 28541 ft | 444 kts | 248° |
| 2026-05-05 19:22 | 51.14173 | 16.03203 | 28356 ft | 444 kts | 248° |
| 2026-05-05 19:23 | 51.13023 | 15.98629 | 28158 ft | 445 kts | 248° |
| 2026-05-05 19:23 | 51.11870 | 15.94060 | 27974 ft | 445 kts | 247° |
| 2026-05-05 19:23 | 51.10715 | 15.89486 | 27788 ft | 446 kts | 247° |
| 2026-05-05 19:23 | 51.09557 | 15.84912 | 27605 ft | 446 kts | 247° |
| 2026-05-05 19:24 | 51.08398 | 15.80333 | 27425 ft | 446 kts | 247° |
| 2026-05-05 19:24 | 51.07242 | 15.75756 | 27243 ft | 446 kts | 247° |
| 2026-05-05 19:24 | 51.06081 | 15.71177 | 27058 ft | 446 kts | 247° |
| 2026-05-05 19:24 | 51.04915 | 15.66610 | 26880 ft | 447 kts | 247° |
| 2026-05-05 19:25 | 51.03743 | 15.62035 | 26696 ft | 447 kts | 247° |
| 2026-05-05 19:25 | 51.02581 | 15.57522 | 26507 ft | 448 kts | 247° |
| 2026-05-05 19:25 | 51.01386 | 15.52883 | 26251 ft | 448 kts | 247° |
| 2026-05-05 19:25 | 51.00223 | 15.48358 | 25984 ft | 449 kts | 246° |
| 2026-05-05 19:26 | 50.99041 | 15.43759 | 25736 ft | 450 kts | 246° |
| 2026-05-05 19:26 | 50.97853 | 15.39156 | 25484 ft | 451 kts | 246° |
| 2026-05-05 19:26 | 50.96658 | 15.34552 | 25240 ft | 452 kts | 246° |
| 2026-05-05 19:26 | 50.95461 | 15.29941 | 24997 ft | 453 kts | 247° |
| 2026-05-05 19:27 | 50.94340 | 15.25272 | 24752 ft | 454 kts | 249° |
| 2026-05-05 19:27 | 50.93328 | 15.20524 | 24528 ft | 455 kts | 251° |
| 2026-05-05 19:27 | 50.92387 | 15.15729 | 24289 ft | 456 kts | 251° |
| 2026-05-05 19:27 | 50.91471 | 15.10917 | 24048 ft | 457 kts | 252° |
| 2026-05-05 19:28 | 50.90550 | 15.06101 | 23812 ft | 457 kts | 251° |
| 2026-05-05 19:28 | 50.89604 | 15.01289 | 23583 ft | 457 kts | 251° |
| 2026-05-05 19:28 | 50.88639 | 14.96503 | 23345 ft | 455 kts | 250° |
| 2026-05-05 19:28 | 50.87567 | 14.91800 | 23080 ft | 453 kts | 244° |
| 2026-05-05 19:29 | 50.86064 | 14.87448 | 22808 ft | 450 kts | 236° |
| 2026-05-05 19:29 | 50.84160 | 14.83523 | 22524 ft | 448 kts | 227° |
| 2026-05-05 19:29 | 50.81920 | 14.80115 | 22261 ft | 447 kts | 219° |
| 2026-05-05 19:29 | 50.79533 | 14.76978 | 21979 ft | 445 kts | 219° |
| 2026-05-05 19:30 | 50.77162 | 14.73859 | 21046 ft | 442 kts | 219° |
| 2026-05-05 19:30 | 50.74817 | 14.70769 | 20155 ft | 437 kts | 219° |
| 2026-05-05 19:30 | 50.72489 | 14.67707 | 19272 ft | 434 kts | 219° |
| 2026-05-05 19:30 | 50.70174 | 14.64671 | 18413 ft | 431 kts | 219° |
| 2026-05-05 19:31 | 50.67875 | 14.61667 | 17469 ft | 428 kts | 219° |
| 2026-05-05 19:31 | 50.65598 | 14.58702 | 16614 ft | 422 kts | 219° |
| 2026-05-05 19:31 | 50.63380 | 14.55816 | 15782 ft | 417 kts | 218° |
| 2026-05-05 19:31 | 50.61137 | 14.52957 | 14957 ft | 412 kts | 215° |
| 2026-05-05 19:32 | 50.58697 | 14.50662 | 14156 ft | 407 kts | 204° |
| 2026-05-05 19:32 | 50.56101 | 14.49165 | 13382 ft | 387 kts | 194° |
| 2026-05-05 19:32 | 50.53518 | 14.48432 | 12656 ft | 367 kts | 187° |
| 2026-05-05 19:32 | 50.51018 | 14.47883 | 12004 ft | 364 kts | 188° |
| 2026-05-05 19:33 | 50.48509 | 14.47321 | 11353 ft | 364 kts | 188° |
| 2026-05-05 19:33 | 50.46044 | 14.46761 | 10831 ft | 347 kts | 188° |
| 2026-05-05 19:33 | 50.43753 | 14.46238 | 10671 ft | 318 kts | 188° |
| 2026-05-05 19:33 | 50.41649 | 14.45760 | 10544 ft | 294 kts | 188° |
| 2026-05-05 19:34 | 50.39699 | 14.45321 | 10421 ft | 273 kts | 189° |
| 2026-05-05 19:34 | 50.37920 | 14.44653 | 10298 ft | 254 kts | 199° |
| 2026-05-05 19:34 | 50.36334 | 14.43602 | 10053 ft | 243 kts | 207° |
| 2026-05-05 19:35 | 50.33562 | 14.40615 | 9645 ft | 242 kts | 216° |
| 2026-05-05 19:35 | 50.32213 | 14.39031 | 9516 ft | 243 kts | 216° |
| 2026-05-05 19:35 | 50.30865 | 14.37450 | 9394 ft | 242 kts | 216° |
| 2026-05-05 19:35 | 50.29523 | 14.35874 | 9256 ft | 241 kts | 216° |
| 2026-05-05 19:36 | 50.28182 | 14.34300 | 9121 ft | 241 kts | 216° |
| 2026-05-05 19:36 | 50.26846 | 14.32727 | 8996 ft | 240 kts | 216° |
| 2026-05-05 19:36 | 50.25463 | 14.31100 | 8859 ft | 263 kts | 216° |
| 2026-05-05 19:36 | 50.23969 | 14.29345 | 8632 ft | 274 kts | 216° |
| 2026-05-05 19:37 | 50.22697 | 14.27095 | 8132 ft | 282 kts | 242° |
| 2026-05-05 19:37 | 50.22248 | 14.24110 | 7615 ft | 292 kts | 271° |
| 2026-05-05 19:37 | 50.22874 | 14.21114 | 7365 ft | 293 kts | 301° |
| 2026-05-05 19:37 | 50.24075 | 14.18545 | 7026 ft | 293 kts | 305° |
| 2026-05-05 19:38 | 50.25303 | 14.16005 | 6687 ft | 292 kts | 304° |
| 2026-05-05 19:38 | 50.26219 | 14.13261 | 6513 ft | 280 kts | 281° |
| 2026-05-05 19:38 | 50.26261 | 14.10226 | 5841 ft | 286 kts | 252° |
| 2026-05-05 19:38 | 50.25312 | 14.07543 | 5139 ft | 292 kts | 223° |
| 2026-05-05 19:39 | 50.23803 | 14.05460 | 4859 ft | 286 kts | 216° |
| 2026-05-05 19:39 | 50.22091 | 14.04117 | 4694 ft | 271 kts | 186° |
| 2026-05-05 19:39 | 50.20277 | 14.04445 | 4348 ft | 265 kts | 153° |
| 2026-05-05 19:39 | 50.18942 | 14.06332 | 3947 ft | 262 kts | 117° |
| 2026-05-05 19:40 | 50.18268 | 14.08959 | 3580 ft | 260 kts | 111° |
| 2026-05-05 19:40 | 50.17287 | 14.11311 | 3264 ft | 259 kts | 126° |
| 2026-05-05 19:40 | 50.16176 | 14.13420 | 2938 ft | 243 kts | 125° |
| 2026-05-05 19:40 | 50.15172 | 14.15447 | 2626 ft | 229 kts | 123° |
| 2026-05-05 19:41 | 50.14241 | 14.17381 | 2333 ft | 217 kts | 122° |
| 2026-05-05 19:41 | 50.13359 | 14.19218 | 2060 ft | 205 kts | 123° |
| 2026-05-05 19:41 | 50.12530 | 14.20940 | 1803 ft | 192 kts | 124° |
| 2026-05-05 19:41 | 50.11746 | 14.22570 | 1523 ft | 186 kts | 125° |
| 2026-05-05 19:42 | 50.10981 | 14.24160 | 1591 ft | 174 kts | 124° |
| 2026-05-05 19:42 | 50.10258 | 14.25669 | 1947 ft | 182 kts | 124° |
| 2026-05-05 19:42 | 50.09474 | 14.27298 | 2100 ft | 192 kts | 123° |
| 2026-05-05 19:42 | 50.08638 | 14.28925 | 2278 ft | 193 kts | 124° |
| 2026-05-05 19:43 | 50.07782 | 14.30533 | 2468 ft | 192 kts | 124° |
| 2026-05-05 19:43 | 50.06921 | 14.32232 | 2653 ft | 210 kts | 124° |
| 2026-05-05 19:43 | 50.06022 | 14.34063 | 2829 ft | 215 kts | 124° |
| 2026-05-05 19:43 | 50.05138 | 14.35901 | 2998 ft | 215 kts | 124° |
| 2026-05-05 19:44 | 50.04259 | 14.37772 | 3170 ft | 215 kts | 124° |
| 2026-05-05 19:44 | 50.03380 | 14.39654 | 3345 ft | 216 kts | 124° |
| 2026-05-05 19:44 | 50.02505 | 14.41553 | 3514 ft | 216 kts | 124° |
| 2026-05-05 19:44 | 50.01637 | 14.43462 | 3686 ft | 217 kts | 124° |
| 2026-05-05 19:45 | 50.00630 | 14.45203 | 4292 ft | 219 kts | 147° |
| 2026-05-05 19:45 | 49.99186 | 14.45955 | 4827 ft | 223 kts | 177° |
| 2026-05-05 19:45 | 49.97666 | 14.45547 | 4965 ft | 222 kts | 195° |
| 2026-05-05 19:45 | 49.96204 | 14.44775 | 4997 ft | 222 kts | 198° |
| 2026-05-05 19:46 | 49.94825 | 14.43719 | 4996 ft | 224 kts | 218° |
| 2026-05-05 19:46 | 49.93888 | 14.41801 | 5000 ft | 227 kts | 247° |
| 2026-05-05 19:46 | 49.93693 | 14.39368 | 5004 ft | 232 kts | 278° |
| 2026-05-05 19:46 | 49.94331 | 14.37083 | 5009 ft | 235 kts | 306° |
| 2026-05-05 19:47 | 49.95318 | 14.35061 | 5007 ft | 235 kts | 306° |
| 2026-05-05 19:47 | 49.96294 | 14.33065 | 5004 ft | 236 kts | 306° |
| 2026-05-05 19:47 | 49.97285 | 14.31028 | 5002 ft | 236 kts | 306° |
| 2026-05-05 19:47 | 49.98275 | 14.28990 | 5006 ft | 236 kts | 306° |
| 2026-05-05 19:48 | 49.99264 | 14.26949 | 5001 ft | 236 kts | 306° |
| 2026-05-05 19:48 | 50.00251 | 14.24911 | 5010 ft | 238 kts | 307° |
| 2026-05-05 19:48 | 50.01248 | 14.22844 | 5007 ft | 239 kts | 306° |
| 2026-05-05 19:48 | 50.02245 | 14.20777 | 5006 ft | 240 kts | 306° |
| 2026-05-05 19:49 | 50.03254 | 14.18684 | 5009 ft | 247 kts | 306° |
| 2026-05-05 19:49 | 50.03943 | 14.17252 | 5006 ft | 251 kts | 306° |
| 2026-05-05 19:49 | 50.05350 | 14.14331 | 4929 ft | 254 kts | 306° |
| 2026-05-05 19:49 | 50.06405 | 14.12143 | 4766 ft | 250 kts | 306° |
| 2026-05-05 19:50 | 50.07448 | 14.09975 | 4705 ft | 251 kts | 307° |
| 2026-05-05 19:50 | 50.08493 | 14.07803 | 4650 ft | 251 kts | 307° |
| 2026-05-05 19:50 | 50.09536 | 14.05627 | 4596 ft | 250 kts | 306° |
| 2026-05-05 19:50 | 50.10579 | 14.03448 | 4537 ft | 251 kts | 307° |
| 2026-05-05 19:51 | 50.11622 | 14.01272 | 4488 ft | 250 kts | 307° |
| 2026-05-05 19:51 | 50.12663 | 13.99097 | 4428 ft | 250 kts | 307° |
| 2026-05-05 19:51 | 50.13703 | 13.96922 | 4356 ft | 250 kts | 307° |
| 2026-05-05 19:51 | 50.14742 | 13.94750 | 4313 ft | 250 kts | 307° |
| 2026-05-05 19:52 | 50.15855 | 13.92676 | 4111 ft | 249 kts | 325° |
| 2026-05-05 19:52 | 50.17404 | 13.91826 | 3993 ft | 230 kts | 7° |
| 2026-05-05 19:52 | 50.18773 | 13.92681 | 3998 ft | 206 kts | 49° |
| 2026-05-05 19:52 | 50.19491 | 13.94481 | 4032 ft | 186 kts | 65° |
| 2026-05-05 19:53 | 50.20041 | 13.96202 | 3998 ft | 168 kts | 67° |
| 2026-05-05 19:53 | 50.20463 | 13.97800 | 4006 ft | 153 kts | 75° |
| 2026-05-05 19:53 | 50.20802 | 13.99320 | 3998 ft | 148 kts | 75° |
| 2026-05-05 19:53 | 50.20975 | 14.00879 | 4006 ft | 146 kts | 88° |
| 2026-05-05 19:54 | 50.20906 | 14.02453 | 4007 ft | 146 kts | 102° |
| 2026-05-05 19:54 | 50.20538 | 14.03997 | 4008 ft | 158 kts | 121° |
| 2026-05-05 19:54 | 50.19923 | 14.05443 | 3991 ft | 161 kts | 123° |
| 2026-05-05 19:54 | 50.19273 | 14.06866 | 3879 ft | 161 kts | 123° |
| 2026-05-05 19:55 | 50.18611 | 14.08275 | 3691 ft | 160 kts | 122° |
| 2026-05-05 19:55 | 50.17946 | 14.09670 | 3504 ft | 160 kts | 123° |
| 2026-05-05 19:55 | 50.17279 | 14.11065 | 3293 ft | 162 kts | 123° |
| 2026-05-05 19:55 | 50.16605 | 14.12471 | 3081 ft | 162 kts | 122° |
| 2026-05-05 19:56 | 50.15933 | 14.13869 | 2898 ft | 161 kts | 121° |
| 2026-05-05 19:56 | 50.15263 | 14.15265 | 2670 ft | 162 kts | 121° |
| 2026-05-05 19:56 | 50.14586 | 14.16673 | 2443 ft | 163 kts | 121° |
| 2026-05-05 19:56 | 50.13906 | 14.18087 | 2226 ft | 164 kts | 121° |
| 2026-05-05 19:57 | 50.13221 | 14.19511 | 1999 ft | 164 kts | 123° |
| 2026-05-05 19:57 | 50.12764 | 14.20454 | 1878 ft | 165 kts | 123° |
| 2026-05-05 19:57 | 50.11864 | 14.22290 | 1607 ft | 150 kts | 123° |
| 2026-05-05 19:57 | 50.11255 | 14.23586 | 1359 ft | 147 kts | 124° |
| 2026-05-05 19:58 | 50.10641 | 14.24857 | 1163 ft | 146 kts | 124° |
| 2026-05-05 19:58 | 50.10097 | 14.25994 | 1191 ft | 112 kts | 128° |
| 2026-05-05 19:58 | 50.09711 | 14.26794 | 1209 ft | 67 kts | 127° |
| 2026-05-05 19:58 | 50.09477 | 14.27278 | 1206 ft | 49 kts | 126° |
| 2026-05-05 19:59 | 50.09440 | 14.27443 | 1210 ft | 11 kts | 52° |
| 2026-05-05 19:59 | 50.09503 | 14.27525 | 1213 ft | 0 kts | 37° |
| 2026-05-05 20:00 | 50.09504 | 14.27527 | 1213 ft | 2 kts | 36° |
| 2026-05-05 20:00 | 50.09542 | 14.27570 | 1213 ft | 9 kts | 37° |
| 2026-05-05 20:00 | 50.09598 | 14.27635 | 1211 ft | 10 kts | 35° |
| 2026-05-05 20:00 | 50.09672 | 14.27591 | 1207 ft | 15 kts | 314° |
| 2026-05-05 20:01 | 50.09757 | 14.27460 | 1205 ft | 19 kts | 315° |
| 2026-05-05 20:01 | 50.09854 | 14.27309 | 1203 ft | 18 kts | 312° |
| 2026-05-05 20:01 | 50.09937 | 14.27143 | 1200 ft | 20 kts | 307° |
| 2026-05-05 20:01 | 50.10028 | 14.26953 | 1194 ft | 25 kts | 307° |
| 2026-05-05 20:02 | 50.10147 | 14.26710 | 1177 ft | 31 kts | 307° |
| 2026-05-05 20:02 | 50.10250 | 14.26499 | 1173 ft | 24 kts | 307° |
| 2026-05-05 20:02 | 50.10352 | 14.26285 | 1173 ft | 26 kts | 307° |
| 2026-05-05 20:02 | 50.10450 | 14.26081 | 1175 ft | 16 kts | 306° |
| 2026-05-05 20:03 | 50.10522 | 14.25980 | 1174 ft | 13 kts | 355° |
| 2026-05-05 20:03 | 50.10580 | 14.26072 | 1172 ft | 12 kts | 91° |
| 2026-05-05 20:03 | 50.10548 | 14.26170 | 1171 ft | 9 kts | 120° |
| 2026-05-05 20:03 | 50.10522 | 14.26273 | 1171 ft | 11 kts | 118° |
| 2026-05-05 20:04 | 50.10478 | 14.26374 | 1170 ft | 12 kts | 124° |
| 2026-05-05 20:04 | 50.10459 | 14.26451 | 1169 ft | 5 kts | 52° |
| 2026-05-05 20:04 | 50.10483 | 14.26478 | 1173 ft | 0 kts | 33° |